sensor_id;sensor_type;location;lat;lon;timestamp;temperature;humidity
28761;DHT22;15917;50.014;8.352;2022-08-11T00:01:54;24.00;65.10
28761;DHT22;15917;50.014;8.352;2022-08-11T00:04:24;24.00;65.00
28761;DHT22;15917;50.014;8.352;2022-08-11T00:06:51;23.90;64.90
28761;DHT22;15917;50.014;8.352;2022-08-11T00:09:30;23.90;65.20
28761;DHT22;15917;50.014;8.352;2022-08-11T00:11:56;23.90;65.30
28761;DHT22;15917;50.014;8.352;2022-08-11T00:14:29;23.90;65.30
28761;DHT22;15917;50.014;8.352;2022-08-11T00:17:09;23.80;65.50
28761;DHT22;15917;50.014;8.352;2022-08-11T00:20:00;23.80;65.70
28761;DHT22;15917;50.014;8.352;2022-08-11T00:22:27;23.80;65.40
28761;DHT22;15917;50.014;8.352;2022-08-11T00:24:54;23.80;65.70
28761;DHT22;15917;50.014;8.352;2022-08-11T00:27:30;23.70;65.80
28761;DHT22;15917;50.014;8.352;2022-08-11T00:29:57;23.70;66.00
28761;DHT22;15917;50.014;8.352;2022-08-11T00:32:22;23.70;66.20
28761;DHT22;15917;50.014;8.352;2022-08-11T00:34:48;23.70;65.90
28761;DHT22;15917;50.014;8.352;2022-08-11T00:37:19;23.80;65.70
28761;DHT22;15917;50.014;8.352;2022-08-11T00:39:48;23.70;65.90
28761;DHT22;15917;50.014;8.352;2022-08-11T00:45:16;23.70;66.20
28761;DHT22;15917;50.014;8.352;2022-08-11T00:59:07;23.50;66.40
28761;DHT22;15917;50.014;8.352;2022-08-11T01:10:40;23.50;66.60
28761;DHT22;15917;50.014;8.352;2022-08-11T01:13:45;23.50;66.90
28761;DHT22;15917;50.014;8.352;2022-08-11T01:20:13;23.40;67.00
28761;DHT22;15917;50.014;8.352;2022-08-11T01:46:53;23.30;67.20
28761;DHT22;15917;50.014;8.352;2022-08-11T01:49:35;23.30;67.40
28761;DHT22;15917;50.014;8.352;2022-08-11T01:52:33;23.30;67.00
28761;DHT22;15917;50.014;8.352;2022-08-11T01:57:43;23.30;67.50
28761;DHT22;15917;50.014;8.352;2022-08-11T02:00:18;23.20;67.50
28761;DHT22;15917;50.014;8.352;2022-08-11T02:03:00;23.20;67.30
28761;DHT22;15917;50.014;8.352;2022-08-11T02:05:51;23.20;67.80
28761;DHT22;15917;50.014;8.352;2022-08-11T02:11:39;23.20;67.30
28761;DHT22;15917;50.014;8.352;2022-08-11T02:14:28;23.20;67.70
28761;DHT22;15917;50.014;8.352;2022-08-11T02:17:18;23.10;67.80
28761;DHT22;15917;50.014;8.352;2022-08-11T02:20:15;23.10;67.60
28761;DHT22;15917;50.014;8.352;2022-08-11T02:23:09;23.00;67.60
28761;DHT22;15917;50.014;8.352;2022-08-11T02:26:04;23.00;67.90
28761;DHT22;15917;50.014;8.352;2022-08-11T02:40:08;22.90;68.40
28761;DHT22;15917;50.014;8.352;2022-08-11T02:45:36;22.80;68.40
28761;DHT22;15917;50.014;8.352;2022-08-11T02:48:38;22.80;68.40
28761;DHT22;15917;50.014;8.352;2022-08-11T02:51:38;22.80;68.70
28761;DHT22;15917;50.014;8.352;2022-08-11T02:54:16;22.70;69.00
28761;DHT22;15917;50.014;8.352;2022-08-11T02:59:59;22.80;69.00
28761;DHT22;15917;50.014;8.352;2022-08-11T03:05:29;22.70;69.00
28761;DHT22;15917;50.014;8.352;2022-08-11T03:11:10;22.70;69.30
28761;DHT22;15917;50.014;8.352;2022-08-11T03:17:11;22.70;69.40
28761;DHT22;15917;50.014;8.352;2022-08-11T03:22:39;22.70;69.40
28761;DHT22;15917;50.014;8.352;2022-08-11T03:25:21;22.70;69.40
28761;DHT22;15917;50.014;8.352;2022-08-11T03:28:11;22.60;69.50
28761;DHT22;15917;50.014;8.352;2022-08-11T03:30:42;22.70;69.40
28761;DHT22;15917;50.014;8.352;2022-08-11T03:33:14;22.60;69.60
28761;DHT22;15917;50.014;8.352;2022-08-11T03:36:03;22.50;69.20
28761;DHT22;15917;50.014;8.352;2022-08-11T03:38:47;22.60;69.80
28761;DHT22;15917;50.014;8.352;2022-08-11T03:41:47;22.60;69.70
28761;DHT22;15917;50.014;8.352;2022-08-11T03:47:00;22.60;69.70
28761;DHT22;15917;50.014;8.352;2022-08-11T03:50:11;22.60;69.90
28761;DHT22;15917;50.014;8.352;2022-08-11T04:10:36;22.40;70.50
28761;DHT22;15917;50.014;8.352;2022-08-11T04:16:11;22.40;70.50
28761;DHT22;15917;50.014;8.352;2022-08-11T04:19:17;22.40;70.50
28761;DHT22;15917;50.014;8.352;2022-08-11T04:22:12;22.30;70.80
28761;DHT22;15917;50.014;8.352;2022-08-11T04:42:11;22.40;70.50
28761;DHT22;15917;50.014;8.352;2022-08-11T04:47:32;22.40;70.70
28761;DHT22;15917;50.014;8.352;2022-08-11T04:53:21;22.40;70.70
28761;DHT22;15917;50.014;8.352;2022-08-11T04:56:23;22.30;70.50
28761;DHT22;15917;50.014;8.352;2022-08-11T05:05:14;22.60;71.30
28761;DHT22;15917;50.014;8.352;2022-08-11T05:14:51;23.10;70.10
28761;DHT22;15917;50.014;8.352;2022-08-11T05:17:36;23.00;69.60
28761;DHT22;15917;50.014;8.352;2022-08-11T05:20:24;23.00;69.60
28761;DHT22;15917;50.014;8.352;2022-08-11T05:23:10;23.10;70.10
28761;DHT22;15917;50.014;8.352;2022-08-11T05:25:57;23.10;69.70
28761;DHT22;15917;50.014;8.352;2022-08-11T05:28:53;23.20;69.80
28761;DHT22;15917;50.014;8.352;2022-08-11T05:31:40;23.20;70.20
28761;DHT22;15917;50.014;8.352;2022-08-11T05:34:47;23.20;69.80
28761;DHT22;15917;50.014;8.352;2022-08-11T05:37:35;23.30;69.80
28761;DHT22;15917;50.014;8.352;2022-08-11T05:40:08;23.30;70.00
28761;DHT22;15917;50.014;8.352;2022-08-11T05:43:02;23.30;69.80
28761;DHT22;15917;50.014;8.352;2022-08-11T05:46:01;23.30;69.80
28761;DHT22;15917;50.014;8.352;2022-08-11T05:48:46;23.30;69.30
28761;DHT22;15917;50.014;8.352;2022-08-11T05:51:35;23.40;69.60
28761;DHT22;15917;50.014;8.352;2022-08-11T05:54:20;23.50;69.40
28761;DHT22;15917;50.014;8.352;2022-08-11T05:57:05;23.50;69.10
28761;DHT22;15917;50.014;8.352;2022-08-11T05:59:31;23.50;69.00
28761;DHT22;15917;50.014;8.352;2022-08-11T06:02:06;23.50;68.50
28761;DHT22;15917;50.014;8.352;2022-08-11T06:04:32;23.60;68.90
28761;DHT22;15917;50.014;8.352;2022-08-11T06:07:05;23.60;69.00
28761;DHT22;15917;50.014;8.352;2022-08-11T06:09:53;23.70;68.40
28761;DHT22;15917;50.014;8.352;2022-08-11T06:12:28;23.70;68.30
28761;DHT22;15917;50.014;8.352;2022-08-11T06:15:03;23.70;68.60
28761;DHT22;15917;50.014;8.352;2022-08-11T06:17:32;23.80;68.40
28761;DHT22;15917;50.014;8.352;2022-08-11T06:20:01;23.80;68.50
28761;DHT22;15917;50.014;8.352;2022-08-11T06:22:27;23.90;68.40
28761;DHT22;15917;50.014;8.352;2022-08-11T06:24:56;23.90;68.60
28761;DHT22;15917;50.014;8.352;2022-08-11T06:27:23;24.00;68.60
28761;DHT22;15917;50.014;8.352;2022-08-11T06:29:51;24.00;68.60
28761;DHT22;15917;50.014;8.352;2022-08-11T06:32:19;24.10;68.20
28761;DHT22;15917;50.014;8.352;2022-08-11T06:35:16;24.10;68.00
28761;DHT22;15917;50.014;8.352;2022-08-11T06:43:20;24.20;68.30
28761;DHT22;15917;50.014;8.352;2022-08-11T06:46:00;24.20;68.20
28761;DHT22;15917;50.014;8.352;2022-08-11T06:48:30;24.20;67.80
28761;DHT22;15917;50.014;8.352;2022-08-11T06:51:01;24.20;68.10
28761;DHT22;15917;50.014;8.352;2022-08-11T06:56:12;24.30;68.10
28761;DHT22;15917;50.014;8.352;2022-08-11T06:58:58;24.30;68.00
28761;DHT22;15917;50.014;8.352;2022-08-11T07:04:39;24.30;67.60
28761;DHT22;15917;50.014;8.352;2022-08-11T07:13:04;24.40;68.30
28761;DHT22;15917;50.014;8.352;2022-08-11T07:15:50;24.50;67.50
28761;DHT22;15917;50.014;8.352;2022-08-11T07:18:34;24.50;67.70
28761;DHT22;15917;50.014;8.352;2022-08-11T07:21:23;24.60;67.10
28761;DHT22;15917;50.014;8.352;2022-08-11T07:24:16;24.60;67.30
28761;DHT22;15917;50.014;8.352;2022-08-11T07:27:05;24.70;67.40
28761;DHT22;15917;50.014;8.352;2022-08-11T07:29:51;24.70;67.30
28761;DHT22;15917;50.014;8.352;2022-08-11T07:32:29;24.80;67.10
28761;DHT22;15917;50.014;8.352;2022-08-11T07:35:05;24.90;66.60
28761;DHT22;15917;50.014;8.352;2022-08-11T07:37:33;24.90;66.90
28761;DHT22;15917;50.014;8.352;2022-08-11T07:39:59;24.90;66.90
28761;DHT22;15917;50.014;8.352;2022-08-11T07:42:30;24.90;67.00
28761;DHT22;15917;50.014;8.352;2022-08-11T07:44:56;25.00;66.80
28761;DHT22;15917;50.014;8.352;2022-08-11T07:47:42;25.10;66.60
28761;DHT22;15917;50.014;8.352;2022-08-11T07:50:29;25.20;66.50
28761;DHT22;15917;50.014;8.352;2022-08-11T07:53:13;25.20;66.50
28761;DHT22;15917;50.014;8.352;2022-08-11T07:55:41;25.30;66.20
28761;DHT22;15917;50.014;8.352;2022-08-11T07:58:09;25.40;66.20
28761;DHT22;15917;50.014;8.352;2022-08-11T08:00:55;25.60;66.30
28761;DHT22;15917;50.014;8.352;2022-08-11T08:03:41;25.50;65.70
28761;DHT22;15917;50.014;8.352;2022-08-11T08:06:27;25.60;65.90
28761;DHT22;15917;50.014;8.352;2022-08-11T08:09:16;25.60;66.10
28761;DHT22;15917;50.014;8.352;2022-08-11T08:12:02;25.70;66.00
28761;DHT22;15917;50.014;8.352;2022-08-11T08:14:48;25.90;65.90
28761;DHT22;15917;50.014;8.352;2022-08-11T08:17:33;25.90;65.30
28761;DHT22;15917;50.014;8.352;2022-08-11T08:20:24;25.90;65.30
28761;DHT22;15917;50.014;8.352;2022-08-11T08:22:53;26.10;65.70
28761;DHT22;15917;50.014;8.352;2022-08-11T08:25:41;26.10;65.40
28761;DHT22;15917;50.014;8.352;2022-08-11T08:28:18;26.20;65.50
28761;DHT22;15917;50.014;8.352;2022-08-11T08:30:45;26.30;65.60
28761;DHT22;15917;50.014;8.352;2022-08-11T08:33:22;26.40;64.70
28761;DHT22;15917;50.014;8.352;2022-08-11T08:35:56;26.50;64.80
28761;DHT22;15917;50.014;8.352;2022-08-11T08:38:52;26.50;64.40
28761;DHT22;15917;50.014;8.352;2022-08-11T08:41:24;26.60;64.70
28761;DHT22;15917;50.014;8.352;2022-08-11T08:43:54;26.70;64.00
28761;DHT22;15917;50.014;8.352;2022-08-11T08:46:28;26.70;63.60
28761;DHT22;15917;50.014;8.352;2022-08-11T08:48:57;26.80;63.50
28761;DHT22;15917;50.014;8.352;2022-08-11T08:51:24;26.90;63.90
28761;DHT22;15917;50.014;8.352;2022-08-11T08:54:16;27.10;63.20
28761;DHT22;15917;50.014;8.352;2022-08-11T08:56:44;27.20;62.80
28761;DHT22;15917;50.014;8.352;2022-08-11T08:59:12;27.30;63.00
28761;DHT22;15917;50.014;8.352;2022-08-11T09:01:49;27.30;63.10
28761;DHT22;15917;50.014;8.352;2022-08-11T09:04:16;27.40;62.30
28761;DHT22;15917;50.014;8.352;2022-08-11T09:06:44;27.50;62.30
28761;DHT22;15917;50.014;8.352;2022-08-11T09:09:11;27.70;62.20
28761;DHT22;15917;50.014;8.352;2022-08-11T09:11:38;27.70;61.30
28761;DHT22;15917;50.014;8.352;2022-08-11T09:14:32;27.80;61.10
28761;DHT22;15917;50.014;8.352;2022-08-11T09:17:18;28.00;61.40
28761;DHT22;15917;50.014;8.352;2022-08-11T09:19:45;28.10;60.70
28761;DHT22;15917;50.014;8.352;2022-08-11T09:22:12;28.10;60.70
28761;DHT22;15917;50.014;8.352;2022-08-11T09:25:01;28.20;61.80
28761;DHT22;15917;50.014;8.352;2022-08-11T09:27:46;28.30;61.20
28761;DHT22;15917;50.014;8.352;2022-08-11T09:30:12;28.40;60.50
28761;DHT22;15917;50.014;8.352;2022-08-11T09:32:38;28.50;60.00
28761;DHT22;15917;50.014;8.352;2022-08-11T09:35:05;28.60;59.80
28761;DHT22;15917;50.014;8.352;2022-08-11T09:37:32;28.70;60.50
28761;DHT22;15917;50.014;8.352;2022-08-11T09:40:16;28.70;59.80
28761;DHT22;15917;50.014;8.352;2022-08-11T09:42:58;28.90;59.80
28761;DHT22;15917;50.014;8.352;2022-08-11T09:45:48;28.90;59.30
28761;DHT22;15917;50.014;8.352;2022-08-11T09:48:24;28.90;58.90
28761;DHT22;15917;50.014;8.352;2022-08-11T09:50:53;29.00;59.20
28761;DHT22;15917;50.014;8.352;2022-08-11T09:53:20;29.20;58.70
28761;DHT22;15917;50.014;8.352;2022-08-11T09:55:47;29.10;58.40
28761;DHT22;15917;50.014;8.352;2022-08-11T09:58:14;29.30;59.00
28761;DHT22;15917;50.014;8.352;2022-08-11T10:00:41;29.30;57.40
28761;DHT22;15917;50.014;8.352;2022-08-11T10:03:28;29.40;55.70
28761;DHT22;15917;50.014;8.352;2022-08-11T10:05:58;29.50;55.60
28761;DHT22;15917;50.014;8.352;2022-08-11T10:08:50;29.60;55.80
28761;DHT22;15917;50.014;8.352;2022-08-11T10:11:21;29.60;55.60
28761;DHT22;15917;50.014;8.352;2022-08-11T10:13:48;29.60;56.10
28761;DHT22;15917;50.014;8.352;2022-08-11T10:16:38;29.70;56.10
28761;DHT22;15917;50.014;8.352;2022-08-11T10:19:07;29.80;56.40
28761;DHT22;15917;50.014;8.352;2022-08-11T10:21:40;29.50;56.00
28761;DHT22;15917;50.014;8.352;2022-08-11T10:24:08;29.40;56.40
28761;DHT22;15917;50.014;8.352;2022-08-11T10:26:55;29.50;56.80
28761;DHT22;15917;50.014;8.352;2022-08-11T10:29:35;29.70;56.80
28761;DHT22;15917;50.014;8.352;2022-08-11T10:32:22;29.90;55.80
28761;DHT22;15917;50.014;8.352;2022-08-11T10:35:14;30.20;55.60
28761;DHT22;15917;50.014;8.352;2022-08-11T10:37:42;30.20;55.30
28761;DHT22;15917;50.014;8.352;2022-08-11T10:40:13;30.30;55.20
28761;DHT22;15917;50.014;8.352;2022-08-11T10:42:40;30.30;55.30
28761;DHT22;15917;50.014;8.352;2022-08-11T10:45:25;30.40;54.70
28761;DHT22;15917;50.014;8.352;2022-08-11T10:48:10;30.50;54.40
28761;DHT22;15917;50.014;8.352;2022-08-11T10:50:37;30.40;54.20
28761;DHT22;15917;50.014;8.352;2022-08-11T10:53:22;30.50;55.00
28761;DHT22;15917;50.014;8.352;2022-08-11T10:56:10;30.60;54.70
28761;DHT22;15917;50.014;8.352;2022-08-11T10:58:56;30.70;53.80
28761;DHT22;15917;50.014;8.352;2022-08-11T11:01:24;30.80;54.00
28761;DHT22;15917;50.014;8.352;2022-08-11T11:03:54;30.80;53.10
28761;DHT22;15917;50.014;8.352;2022-08-11T11:09:20;31.00;53.80
28761;DHT22;15917;50.014;8.352;2022-08-11T11:12:18;31.10;53.00
28761;DHT22;15917;50.014;8.352;2022-08-11T11:15:05;31.20;52.60
28761;DHT22;15917;50.014;8.352;2022-08-11T11:18:37;31.30;52.10
28761;DHT22;15917;50.014;8.352;2022-08-11T11:21:08;31.10;52.50
28761;DHT22;15917;50.014;8.352;2022-08-11T11:26:58;31.00;52.00
28761;DHT22;15917;50.014;8.352;2022-08-11T11:29:48;31.00;52.20
28761;DHT22;15917;50.014;8.352;2022-08-11T11:32:58;30.90;52.20
28761;DHT22;15917;50.014;8.352;2022-08-11T11:38:05;30.90;52.50
28761;DHT22;15917;50.014;8.352;2022-08-11T11:40:35;31.10;52.20
28761;DHT22;15917;50.014;8.352;2022-08-11T11:43:04;31.10;52.00
28761;DHT22;15917;50.014;8.352;2022-08-11T11:45:31;31.20;52.10
28761;DHT22;15917;50.014;8.352;2022-08-11T11:47:58;31.30;52.50
28761;DHT22;15917;50.014;8.352;2022-08-11T11:50:27;31.30;51.90
28761;DHT22;15917;50.014;8.352;2022-08-11T11:52:54;31.50;52.30
28761;DHT22;15917;50.014;8.352;2022-08-11T11:55:22;31.60;52.10
28761;DHT22;15917;50.014;8.352;2022-08-11T11:57:49;31.60;51.70
28761;DHT22;15917;50.014;8.352;2022-08-11T12:00:34;31.70;51.80
28761;DHT22;15917;50.014;8.352;2022-08-11T12:03:19;31.90;51.20
28761;DHT22;15917;50.014;8.352;2022-08-11T12:05:46;31.90;51.50
28761;DHT22;15917;50.014;8.352;2022-08-11T12:08:12;32.00;51.40
28761;DHT22;15917;50.014;8.352;2022-08-11T12:10:53;32.20;50.90
28761;DHT22;15917;50.014;8.352;2022-08-11T12:13:48;32.20;50.70
28761;DHT22;15917;50.014;8.352;2022-08-11T12:16:17;32.20;50.70
28761;DHT22;15917;50.014;8.352;2022-08-11T12:18:46;32.30;51.20
28761;DHT22;15917;50.014;8.352;2022-08-11T12:21:14;32.50;50.50
28761;DHT22;15917;50.014;8.352;2022-08-11T12:23:41;32.60;50.40
28761;DHT22;15917;50.014;8.352;2022-08-11T12:26:27;32.60;50.00
28761;DHT22;15917;50.014;8.352;2022-08-11T12:29:12;32.70;50.30
28761;DHT22;15917;50.014;8.352;2022-08-11T12:31:40;32.70;50.20
28761;DHT22;15917;50.014;8.352;2022-08-11T12:34:11;32.70;50.30
28761;DHT22;15917;50.014;8.352;2022-08-11T12:36:39;32.60;49.80
28761;DHT22;15917;50.014;8.352;2022-08-11T12:39:08;32.70;50.30
28761;DHT22;15917;50.014;8.352;2022-08-11T12:41:35;32.80;49.60
28761;DHT22;15917;50.014;8.352;2022-08-11T12:44:23;33.00;48.50
28761;DHT22;15917;50.014;8.352;2022-08-11T12:47:09;33.10;48.30
28761;DHT22;15917;50.014;8.352;2022-08-11T12:49:37;33.00;48.00
28761;DHT22;15917;50.014;8.352;2022-08-11T12:52:26;33.10;48.20
28761;DHT22;15917;50.014;8.352;2022-08-11T12:54:59;33.00;48.50
28761;DHT22;15917;50.014;8.352;2022-08-11T13:00:13;33.00;48.20
28761;DHT22;15917;50.014;8.352;2022-08-11T13:02:58;33.20;48.90
28761;DHT22;15917;50.014;8.352;2022-08-11T13:05:45;33.10;48.00
28761;DHT22;15917;50.014;8.352;2022-08-11T13:08:16;33.20;48.40
28761;DHT22;15917;50.014;8.352;2022-08-11T13:10:43;33.10;48.60
28761;DHT22;15917;50.014;8.352;2022-08-11T13:13:28;33.00;49.00
28761;DHT22;15917;50.014;8.352;2022-08-11T13:15:54;33.20;49.70
28761;DHT22;15917;50.014;8.352;2022-08-11T13:18:21;33.40;49.40
28761;DHT22;15917;50.014;8.352;2022-08-11T13:20:52;33.50;49.00
28761;DHT22;15917;50.014;8.352;2022-08-11T13:23:19;33.50;49.20
28761;DHT22;15917;50.014;8.352;2022-08-11T13:25:46;33.60;48.30
28761;DHT22;15917;50.014;8.352;2022-08-11T13:28:13;33.60;48.40
28761;DHT22;15917;50.014;8.352;2022-08-11T13:30:41;33.70;47.70
28761;DHT22;15917;50.014;8.352;2022-08-11T13:33:26;33.70;47.60
28761;DHT22;15917;50.014;8.352;2022-08-11T13:35:53;33.60;47.10
28761;DHT22;15917;50.014;8.352;2022-08-11T13:38:22;33.70;48.30
28761;DHT22;15917;50.014;8.352;2022-08-11T13:40:51;33.80;47.80
28761;DHT22;15917;50.014;8.352;2022-08-11T13:43:19;33.90;47.90
28761;DHT22;15917;50.014;8.352;2022-08-11T13:45:47;33.90;47.70
28761;DHT22;15917;50.014;8.352;2022-08-11T13:48:14;34.00;47.90
28761;DHT22;15917;50.014;8.352;2022-08-11T13:50:43;34.10;47.70
28761;DHT22;15917;50.014;8.352;2022-08-11T13:53:29;34.10;48.10
28761;DHT22;15917;50.014;8.352;2022-08-11T13:55:57;34.20;47.40
28761;DHT22;15917;50.014;8.352;2022-08-11T13:58:25;34.20;46.70
28761;DHT22;15917;50.014;8.352;2022-08-11T14:00:52;34.20;46.80
28761;DHT22;15917;50.014;8.352;2022-08-11T14:03:25;34.30;47.00
28761;DHT22;15917;50.014;8.352;2022-08-11T14:05:54;34.20;46.60
28761;DHT22;15917;50.014;8.352;2022-08-11T14:08:25;34.30;46.80
28761;DHT22;15917;50.014;8.352;2022-08-11T14:10:54;34.50;46.60
28761;DHT22;15917;50.014;8.352;2022-08-11T14:13:42;34.60;45.70
28761;DHT22;15917;50.014;8.352;2022-08-11T14:16:19;34.60;45.80
28761;DHT22;15917;50.014;8.352;2022-08-11T14:18:51;34.60;45.80
28761;DHT22;15917;50.014;8.352;2022-08-11T14:21:20;34.60;46.00
28761;DHT22;15917;50.014;8.352;2022-08-11T14:24:07;34.60;45.50
28761;DHT22;15917;50.014;8.352;2022-08-11T14:26:37;34.60;46.00
28761;DHT22;15917;50.014;8.352;2022-08-11T14:29:11;34.60;46.00
28761;DHT22;15917;50.014;8.352;2022-08-11T14:31:43;34.60;45.60
28761;DHT22;15917;50.014;8.352;2022-08-11T14:34:11;34.60;45.90
28761;DHT22;15917;50.014;8.352;2022-08-11T14:36:42;34.60;45.30
28761;DHT22;15917;50.014;8.352;2022-08-11T14:39:11;34.30;45.80
28761;DHT22;15917;50.014;8.352;2022-08-11T14:41:39;34.40;46.40
28761;DHT22;15917;50.014;8.352;2022-08-11T14:44:24;34.30;46.00
28761;DHT22;15917;50.014;8.352;2022-08-11T14:47:10;34.30;45.60
28761;DHT22;15917;50.014;8.352;2022-08-11T14:49:40;34.30;45.40
28761;DHT22;15917;50.014;8.352;2022-08-11T14:52:08;34.30;45.40
28761;DHT22;15917;50.014;8.352;2022-08-11T14:54:35;34.30;45.60
28761;DHT22;15917;50.014;8.352;2022-08-11T14:57:21;34.30;45.60
28761;DHT22;15917;50.014;8.352;2022-08-11T14:59:51;34.40;45.90
28761;DHT22;15917;50.014;8.352;2022-08-11T15:02:18;34.40;45.70
28761;DHT22;15917;50.014;8.352;2022-08-11T15:05:04;34.50;45.90
28761;DHT22;15917;50.014;8.352;2022-08-11T15:07:32;34.60;45.60
28761;DHT22;15917;50.014;8.352;2022-08-11T15:10:05;34.60;46.00
28761;DHT22;15917;50.014;8.352;2022-08-11T15:12:32;34.50;44.60
28761;DHT22;15917;50.014;8.352;2022-08-11T15:14:59;34.50;45.20
28761;DHT22;15917;50.014;8.352;2022-08-11T15:17:44;34.60;44.80
28761;DHT22;15917;50.014;8.352;2022-08-11T15:20:14;34.60;44.60
28761;DHT22;15917;50.014;8.352;2022-08-11T15:23:01;34.50;45.10
28761;DHT22;15917;50.014;8.352;2022-08-11T15:25:50;34.50;45.50
28761;DHT22;15917;50.014;8.352;2022-08-11T15:28:17;34.40;45.30
28761;DHT22;15917;50.014;8.352;2022-08-11T15:31:03;34.20;45.30
28761;DHT22;15917;50.014;8.352;2022-08-11T15:33:50;34.10;45.70
28761;DHT22;15917;50.014;8.352;2022-08-11T15:36:35;34.10;45.80
28761;DHT22;15917;50.014;8.352;2022-08-11T15:39:24;34.10;46.00
28761;DHT22;15917;50.014;8.352;2022-08-11T15:42:01;34.00;45.60
28761;DHT22;15917;50.014;8.352;2022-08-11T15:44:52;33.90;45.60
28761;DHT22;15917;50.014;8.352;2022-08-11T15:47:41;33.90;46.10
28761;DHT22;15917;50.014;8.352;2022-08-11T15:50:17;33.90;45.80
28761;DHT22;15917;50.014;8.352;2022-08-11T15:52:52;33.90;45.60
28761;DHT22;15917;50.014;8.352;2022-08-11T15:55:21;34.00;45.60
28761;DHT22;15917;50.014;8.352;2022-08-11T15:57:49;33.90;45.20
28761;DHT22;15917;50.014;8.352;2022-08-11T16:00:36;33.80;45.70
28761;DHT22;15917;50.014;8.352;2022-08-11T16:03:23;33.70;45.90
28761;DHT22;15917;50.014;8.352;2022-08-11T16:06:10;33.70;46.10
28761;DHT22;15917;50.014;8.352;2022-08-11T16:08:39;33.70;45.60
28761;DHT22;15917;50.014;8.352;2022-08-11T16:11:06;33.70;45.70
28761;DHT22;15917;50.014;8.352;2022-08-11T16:13:35;33.60;46.00
28761;DHT22;15917;50.014;8.352;2022-08-11T16:16:02;33.50;45.90
28761;DHT22;15917;50.014;8.352;2022-08-11T16:18:52;33.40;46.00
28761;DHT22;15917;50.014;8.352;2022-08-11T16:21:23;33.30;46.60
28761;DHT22;15917;50.014;8.352;2022-08-11T16:23:53;33.20;46.60
28761;DHT22;15917;50.014;8.352;2022-08-11T16:26:21;33.10;46.40
28761;DHT22;15917;50.014;8.352;2022-08-11T16:28:52;33.10;46.60
28761;DHT22;15917;50.014;8.352;2022-08-11T16:31:23;33.00;46.70
28761;DHT22;15917;50.014;8.352;2022-08-11T16:33:50;33.00;46.80
28761;DHT22;15917;50.014;8.352;2022-08-11T16:36:18;32.90;47.00
28761;DHT22;15917;50.014;8.352;2022-08-11T16:39:04;32.70;47.20
28761;DHT22;15917;50.014;8.352;2022-08-11T16:41:33;32.70;47.10
28761;DHT22;15917;50.014;8.352;2022-08-11T16:44:20;32.60;47.40
28761;DHT22;15917;50.014;8.352;2022-08-11T16:47:09;32.60;47.30
28761;DHT22;15917;50.014;8.352;2022-08-11T16:49:40;32.50;47.50
28761;DHT22;15917;50.014;8.352;2022-08-11T16:52:08;32.40;47.60
28761;DHT22;15917;50.014;8.352;2022-08-11T16:54:36;32.30;47.90
28761;DHT22;15917;50.014;8.352;2022-08-11T16:57:05;32.20;47.90
28761;DHT22;15917;50.014;8.352;2022-08-11T16:59:53;32.10;48.10
28761;DHT22;15917;50.014;8.352;2022-08-11T17:02:20;32.10;48.30
28761;DHT22;15917;50.014;8.352;2022-08-11T17:05:10;32.00;48.20
28761;DHT22;15917;50.014;8.352;2022-08-11T17:07:59;32.00;48.30
28761;DHT22;15917;50.014;8.352;2022-08-11T17:10:48;31.80;48.20
28761;DHT22;15917;50.014;8.352;2022-08-11T17:13:41;31.80;48.80
28761;DHT22;15917;50.014;8.352;2022-08-11T17:16:10;31.60;48.60
28761;DHT22;15917;50.014;8.352;2022-08-11T17:18:50;31.50;48.60
28761;DHT22;15917;50.014;8.352;2022-08-11T17:21:29;31.50;49.00
28761;DHT22;15917;50.014;8.352;2022-08-11T17:23:59;31.40;49.10
28761;DHT22;15917;50.014;8.352;2022-08-11T17:26:39;31.30;49.20
28761;DHT22;15917;50.014;8.352;2022-08-11T17:29:39;31.20;49.20
28761;DHT22;15917;50.014;8.352;2022-08-11T17:32:09;31.10;49.60
28761;DHT22;15917;50.014;8.352;2022-08-11T17:34:57;31.00;49.80
28761;DHT22;15917;50.014;8.352;2022-08-11T17:37:43;30.90;49.90
28761;DHT22;15917;50.014;8.352;2022-08-11T17:40:20;30.80;50.30
28761;DHT22;15917;50.014;8.352;2022-08-11T17:42:54;30.70;50.60
28761;DHT22;15917;50.014;8.352;2022-08-11T17:45:44;30.70;51.00
28761;DHT22;15917;50.014;8.352;2022-08-11T17:48:31;30.60;51.20
28761;DHT22;15917;50.014;8.352;2022-08-11T17:51:07;30.50;51.00
28761;DHT22;15917;50.014;8.352;2022-08-11T17:53:41;30.50;51.10
28761;DHT22;15917;50.014;8.352;2022-08-11T17:56:29;30.50;51.20
28761;DHT22;15917;50.014;8.352;2022-08-11T17:59:14;30.50;51.30
28761;DHT22;15917;50.014;8.352;2022-08-11T18:02:01;30.50;51.20
28761;DHT22;15917;50.014;8.352;2022-08-11T18:04:50;30.40;51.40
28761;DHT22;15917;50.014;8.352;2022-08-11T18:07:18;30.40;51.90
28761;DHT22;15917;50.014;8.352;2022-08-11T18:10:04;30.30;51.90
28761;DHT22;15917;50.014;8.352;2022-08-11T18:12:51;30.30;52.30
28761;DHT22;15917;50.014;8.352;2022-08-11T18:15:40;30.20;52.40
28761;DHT22;15917;50.014;8.352;2022-08-11T18:18:25;30.10;52.50
28761;DHT22;15917;50.014;8.352;2022-08-11T18:21:13;30.00;52.60
28761;DHT22;15917;50.014;8.352;2022-08-11T18:24:02;29.90;53.00
28761;DHT22;15917;50.014;8.352;2022-08-11T18:26:47;29.80;53.10
28761;DHT22;15917;50.014;8.352;2022-08-11T18:29:33;29.80;53.50
28761;DHT22;15917;50.014;8.352;2022-08-11T18:32:20;29.60;53.00
28761;DHT22;15917;50.014;8.352;2022-08-11T18:35:08;29.60;53.60
28761;DHT22;15917;50.014;8.352;2022-08-11T18:37:55;29.50;53.50
28761;DHT22;15917;50.014;8.352;2022-08-11T18:40:43;29.50;53.30
28761;DHT22;15917;50.014;8.352;2022-08-11T18:43:28;29.40;53.60
28761;DHT22;15917;50.014;8.352;2022-08-11T18:46:15;29.40;54.00
28761;DHT22;15917;50.014;8.352;2022-08-11T18:49:05;29.40;53.90
28761;DHT22;15917;50.014;8.352;2022-08-11T18:51:52;29.30;54.10
28761;DHT22;15917;50.014;8.352;2022-08-11T18:54:40;29.30;54.40
28761;DHT22;15917;50.014;8.352;2022-08-11T18:57:26;29.20;55.00
28761;DHT22;15917;50.014;8.352;2022-08-11T19:00:11;29.00;54.60
28761;DHT22;15917;50.014;8.352;2022-08-11T19:02:57;28.90;54.70
28761;DHT22;15917;50.014;8.352;2022-08-11T19:05:43;28.80;55.00
28761;DHT22;15917;50.014;8.352;2022-08-11T19:08:34;28.80;55.20
28761;DHT22;15917;50.014;8.352;2022-08-11T19:11:20;28.60;55.20
28761;DHT22;15917;50.014;8.352;2022-08-11T19:14:05;28.60;55.40
28761;DHT22;15917;50.014;8.352;2022-08-11T19:16:51;28.50;55.20
28761;DHT22;15917;50.014;8.352;2022-08-11T19:19:38;28.50;55.50
28761;DHT22;15917;50.014;8.352;2022-08-11T19:22:23;28.40;55.70
28761;DHT22;15917;50.014;8.352;2022-08-11T19:25:10;28.30;60.40
28761;DHT22;15917;50.014;8.352;2022-08-11T19:27:57;28.10;59.30
28761;DHT22;15917;50.014;8.352;2022-08-11T19:30:41;28.00;59.60
28761;DHT22;15917;50.014;8.352;2022-08-11T19:33:28;27.80;58.70
28761;DHT22;15917;50.014;8.352;2022-08-11T19:36:13;27.80;56.50